createdAt,value
2023-04-15T00:00:12.122Z,30.70
2023-04-15T00:02:45.777Z,30.70
2023-04-15T00:05:15.022Z,30.80
2023-04-15T00:07:44.190Z,30.80
2023-04-15T00:10:13.106Z,30.80
2023-04-15T00:12:42.310Z,30.70
2023-04-15T00:15:19.017Z,30.70
2023-04-15T00:17:44.405Z,30.80
2023-04-15T00:20:13.686Z,30.80
2023-04-15T00:22:42.592Z,30.80
2023-04-15T00:25:11.587Z,30.80
2023-04-15T00:27:40.563Z,30.90
2023-04-15T00:30:09.853Z,30.90
2023-04-15T00:32:38.801Z,31.00
2023-04-15T00:35:11.123Z,31.00
2023-04-15T00:37:40.121Z,31.00
2023-04-15T00:40:10.356Z,31.00
2023-04-15T00:42:39.470Z,31.10
2023-04-15T00:45:08.429Z,31.10
2023-04-15T00:47:37.775Z,31.20
2023-04-15T00:50:07.034Z,31.20
2023-04-15T00:52:35.926Z,31.20
2023-04-15T00:55:05.342Z,31.30
2023-04-15T00:57:34.321Z,31.30
2023-04-15T01:00:03.322Z,31.30
2023-04-15T01:02:32.657Z,31.40
2023-04-15T01:05:05.398Z,31.40
2023-04-15T01:07:34.526Z,31.50
2023-04-15T01:10:03.483Z,31.50
2023-04-15T01:12:32.535Z,31.60
2023-04-15T01:15:01.720Z,31.60
2023-04-15T01:17:31.279Z,31.60
2023-04-15T01:20:00.590Z,31.70
2023-04-15T01:22:31.321Z,31.70
2023-04-15T01:25:00.942Z,31.70
2023-04-15T01:27:31.642Z,31.80
2023-04-15T01:30:01.061Z,31.80
2023-04-15T01:32:31.819Z,31.90
2023-04-15T01:35:01.307Z,31.90
2023-04-15T01:37:30.599Z,31.90
2023-04-15T01:40:00.275Z,31.90
2023-04-15T01:42:30.005Z,32.00
2023-04-15T01:44:59.124Z,32.10
2023-04-15T01:47:28.537Z,32.10
2023-04-15T01:49:57.625Z,32.20
2023-04-15T01:52:26.511Z,32.20
2023-04-15T01:54:55.813Z,32.30
2023-04-15T01:57:25.120Z,32.30
2023-04-15T01:59:54.335Z,32.30
2023-04-15T02:02:23.286Z,32.40
2023-04-15T02:04:55.090Z,32.40
2023-04-15T02:07:22.534Z,32.40
2023-04-15T02:09:51.715Z,32.50
2023-04-15T02:12:21.020Z,32.50
2023-04-15T02:14:52.624Z,32.50
2023-04-15T02:17:21.272Z,32.50
2023-04-15T02:19:50.352Z,32.60
2023-04-15T02:22:19.564Z,32.60
2023-04-15T02:24:48.563Z,32.60
2023-04-15T02:27:17.643Z,32.70
2023-04-15T02:29:46.635Z,32.60
2023-04-15T02:32:15.834Z,32.70
2023-04-15T02:34:45.141Z,32.70
2023-04-15T02:37:14.130Z,32.70
2023-04-15T02:39:43.234Z,32.80
2023-04-15T02:42:12.215Z,32.70
2023-04-15T02:44:41.738Z,32.80
2023-04-15T02:47:11.029Z,32.80
2023-04-15T02:49:40.223Z,32.80
2023-04-15T02:52:09.217Z,32.80
2023-04-15T02:54:39.748Z,32.80
2023-04-15T02:57:08.961Z,32.80
2023-04-15T02:59:37.840Z,32.80
2023-04-15T03:02:07.193Z,32.90
2023-04-15T03:04:36.646Z,32.90
2023-04-15T03:07:08.540Z,32.90
2023-04-15T03:09:38.549Z,32.90
2023-04-15T03:12:09.151Z,33.00
2023-04-15T03:14:39.882Z,33.00
2023-04-15T03:17:09.175Z,33.00
2023-04-15T03:19:39.710Z,33.00
2023-04-15T03:22:09.940Z,33.00
2023-04-15T03:24:39.047Z,33.10
2023-04-15T03:27:07.910Z,33.10
2023-04-15T03:29:36.912Z,33.10
2023-04-15T03:32:06.013Z,33.20
2023-04-15T03:34:35.622Z,33.20
2023-04-15T03:37:06.350Z,33.20
2023-04-15T03:39:35.643Z,33.30
2023-04-15T03:42:04.651Z,33.30
2023-04-15T03:44:33.540Z,33.30
2023-04-15T03:47:02.647Z,33.30
2023-04-15T03:49:32.052Z,33.30
2023-04-15T03:52:01.022Z,33.40
2023-04-15T03:54:29.927Z,33.40
2023-04-15T03:56:59.126Z,33.40
2023-04-15T03:59:28.103Z,33.50
2023-04-15T04:01:57.432Z,33.50
2023-04-15T04:04:26.908Z,33.50
2023-04-15T04:06:56.107Z,33.50
2023-04-15T04:09:25.009Z,33.50
2023-04-15T04:11:54.206Z,33.60
2023-04-15T04:14:23.401Z,33.60
2023-04-15T04:16:52.516Z,33.60
2023-04-15T04:19:21.386Z,33.60
2023-04-15T04:21:50.685Z,33.70
2023-04-15T04:24:19.576Z,33.70
2023-04-15T04:26:48.676Z,33.70
2023-04-15T04:29:17.770Z,33.70
2023-04-15T04:31:46.752Z,33.70
2023-04-15T04:34:15.653Z,33.80
2023-04-15T04:36:44.973Z,33.80
2023-04-15T04:39:14.052Z,33.80
2023-04-15T04:41:42.931Z,33.90
2023-04-15T04:44:11.802Z,33.80
2023-04-15T04:46:41.027Z,33.90
2023-04-15T04:49:10.039Z,33.90
2023-04-15T04:51:38.908Z,33.90
2023-04-15T04:54:08.016Z,34.00
2023-04-15T04:56:37.208Z,34.00
2023-04-15T04:59:06.094Z,34.00
2023-04-15T05:01:35.438Z,34.10
2023-04-15T05:04:04.806Z,34.10
2023-04-15T05:06:33.989Z,34.10
2023-04-15T05:09:03.300Z,34.20
2023-04-15T05:11:32.604Z,34.20
2023-04-15T05:14:01.809Z,34.20
2023-04-15T05:16:30.690Z,34.20
2023-04-15T05:19:00.074Z,34.30
2023-04-15T05:21:29.185Z,34.30
2023-04-15T05:23:58.154Z,34.30
2023-04-15T05:26:27.638Z,34.30
2023-04-15T05:28:56.701Z,34.30
2023-04-15T05:31:25.585Z,34.30
2023-04-15T05:33:54.563Z,34.40
2023-04-15T05:36:23.763Z,34.40
2023-04-15T05:38:53.072Z,34.40
2023-04-15T05:41:22.372Z,34.50
2023-04-15T05:43:51.753Z,34.50
2023-04-15T05:46:20.687Z,34.50
2023-04-15T05:48:49.522Z,34.60
2023-04-15T05:51:18.653Z,34.60
2023-04-15T05:53:47.845Z,34.60
2023-04-15T06:18:05.419Z,34.10
2023-04-15T07:05:47.618Z,33.90
2023-04-15T07:08:16.929Z,33.90
2023-04-15T07:10:46.140Z,34.00
2023-04-15T07:13:15.109Z,34.10
2023-04-15T07:15:44.101Z,34.20
2023-04-15T07:18:13.312Z,34.40
2023-04-15T07:20:42.302Z,34.50
2023-04-15T07:23:11.187Z,34.60
2023-04-15T07:25:40.376Z,34.80
2023-04-15T07:28:09.279Z,34.90
2023-04-15T07:30:38.270Z,35.00
2023-04-15T07:33:07.398Z,35.10
2023-04-15T07:35:36.879Z,35.10
2023-04-15T07:38:05.759Z,35.20
2023-04-15T07:40:34.962Z,35.30
2023-04-15T07:43:04.276Z,35.30
2023-04-15T07:45:33.355Z,35.40
2023-04-15T07:48:02.622Z,35.40
2023-04-15T07:50:31.851Z,35.40
2023-04-15T07:53:00.858Z,35.50
2023-04-15T07:55:29.742Z,35.50
2023-04-15T07:57:58.841Z,35.50
2023-04-15T08:00:28.057Z,35.60
2023-04-15T08:02:57.415Z,35.60
2023-04-15T08:05:26.643Z,35.60
2023-04-15T08:07:55.630Z,35.60
2023-04-15T08:10:24.518Z,35.70
2023-04-15T08:12:53.827Z,35.70
2023-04-15T08:15:22.721Z,35.70
2023-04-15T08:17:51.776Z,35.70
2023-04-15T08:20:20.905Z,35.70
2023-04-15T08:22:50.205Z,35.70
2023-04-15T08:25:19.304Z,35.70
2023-04-15T08:27:48.188Z,35.80
2023-04-15T08:30:17.184Z,35.80
2023-04-15T08:32:46.240Z,35.80
2023-04-15T08:35:15.579Z,35.80
2023-04-15T08:37:44.708Z,35.80
2023-04-15T08:40:13.680Z,35.80
2023-04-15T08:42:43.656Z,35.90
2023-04-15T08:45:13.310Z,35.90
2023-04-15T08:47:42.540Z,35.90
2023-04-15T08:50:11.800Z,35.90
2023-04-15T08:52:40.783Z,35.90
2023-04-15T08:55:09.769Z,35.90
2023-04-15T08:57:38.777Z,35.90
2023-04-15T09:00:07.875Z,35.90
2023-04-15T09:02:37.019Z,36.00
2023-04-15T09:05:06.406Z,36.00
2023-04-15T09:07:35.360Z,36.00
2023-04-15T09:10:04.329Z,36.00
2023-04-15T09:12:33.560Z,36.00
2023-04-15T09:15:03.084Z,36.00
2023-04-15T09:17:32.381Z,36.00
2023-04-15T09:20:01.480Z,36.00
2023-04-15T09:22:30.687Z,36.00
2023-04-15T09:24:59.655Z,36.00
2023-04-15T09:27:28.647Z,36.00
2023-04-15T09:29:57.835Z,36.10
2023-04-15T09:32:28.882Z,36.10
2023-04-15T09:35:00.159Z,36.10
2023-04-15T09:37:32.470Z,36.10
2023-04-15T09:39:59.752Z,36.10
2023-04-15T09:42:28.747Z,36.10
2023-04-15T09:44:57.706Z,36.10
2023-04-15T09:47:29.648Z,36.10
2023-04-15T09:49:59.169Z,36.10
2023-04-15T09:52:28.267Z,36.10
2023-04-15T09:54:57.183Z,36.10
2023-04-15T09:57:26.196Z,36.10
2023-04-15T09:59:55.409Z,36.10
2023-04-15T10:02:24.561Z,36.10
2023-04-15T10:04:53.986Z,36.10
2023-04-15T10:07:22.973Z,36.10
2023-04-15T10:09:51.869Z,36.10
2023-04-15T10:12:20.975Z,36.10
2023-04-15T10:14:50.268Z,36.10
2023-04-15T10:17:19.364Z,36.20
2023-04-15T10:19:48.261Z,36.20
2023-04-15T10:22:17.859Z,36.20
2023-04-15T10:24:46.746Z,36.20
2023-04-15T10:27:16.156Z,36.20
2023-04-15T10:29:45.354Z,36.20
2023-04-15T10:32:14.441Z,36.20
2023-04-15T10:34:43.440Z,36.20
2023-04-15T10:37:12.626Z,36.20
2023-04-15T10:39:41.827Z,36.20
2023-04-15T10:42:10.800Z,36.20
2023-04-15T10:44:39.924Z,36.20
2023-04-15T10:47:08.992Z,36.20
2023-04-15T10:49:38.129Z,36.20
2023-04-15T10:52:07.327Z,36.20
2023-04-15T10:54:36.615Z,36.20
2023-04-15T10:57:07.271Z,36.20
2023-04-15T10:59:36.176Z,36.20
2023-04-15T11:02:05.597Z,36.10
2023-04-15T11:04:34.985Z,36.20
2023-04-15T11:07:03.928Z,36.10
2023-04-15T11:09:32.918Z,36.10
2023-04-15T11:12:02.027Z,36.10
2023-04-15T11:14:31.117Z,36.10
2023-04-15T11:17:01.412Z,36.10
2023-04-15T11:19:30.327Z,36.10
2023-04-15T11:21:59.426Z,36.10
2023-04-15T11:24:28.398Z,36.10
2023-04-15T11:26:57.728Z,36.10
2023-04-15T11:29:26.937Z,36.10
2023-04-15T11:31:56.092Z,36.10
2023-04-15T11:34:25.316Z,36.10
2023-04-15T11:36:54.514Z,36.10
2023-04-15T11:39:23.702Z,36.10
2023-04-15T11:41:52.810Z,36.10
2023-04-15T11:44:22.134Z,36.10
2023-04-15T11:46:51.314Z,36.10
2023-04-15T11:49:20.521Z,36.10
2023-04-15T11:51:49.808Z,36.10
2023-04-15T11:54:19.116Z,36.10
2023-04-15T11:56:48.176Z,36.10
2023-04-15T11:59:17.500Z,36.10
2023-04-15T12:01:46.569Z,36.10
2023-04-15T12:04:15.913Z,36.10
2023-04-15T12:06:45.097Z,36.10
2023-04-15T12:09:14.087Z,36.10
2023-04-15T12:11:43.088Z,36.10
2023-04-15T12:14:12.175Z,36.00
2023-04-15T12:16:48.779Z,36.00
2023-04-15T12:19:11.631Z,36.00
2023-04-15T12:21:40.696Z,36.00
2023-04-15T12:24:09.885Z,36.00
2023-04-15T12:26:39.098Z,36.00
2023-04-15T12:29:08.182Z,36.10
2023-04-15T12:31:37.552Z,36.10
2023-04-15T12:34:07.306Z,36.10
2023-04-15T12:36:36.696Z,36.10
2023-04-15T12:39:05.897Z,36.10
2023-04-15T12:41:35.136Z,36.10
2023-04-15T12:44:04.643Z,36.10
2023-04-15T12:46:34.057Z,36.10
2023-04-15T12:49:03.410Z,36.10
2023-04-15T12:51:32.810Z,36.00
2023-04-15T12:54:01.840Z,36.00
2023-04-15T12:56:31.423Z,36.00
2023-04-15T12:59:11.408Z,36.00
2023-04-15T13:01:36.924Z,36.00
2023-04-15T13:04:06.919Z,36.00
2023-04-15T13:06:36.300Z,36.00
2023-04-15T13:09:05.957Z,36.00
2023-04-15T13:11:36.877Z,36.00
2023-04-15T13:14:06.074Z,35.90
2023-04-15T13:16:35.380Z,36.00
2023-04-15T13:19:06.026Z,36.00
2023-04-15T13:21:35.795Z,36.00
2023-04-15T13:24:05.563Z,36.00
2023-04-15T13:26:36.374Z,35.90
2023-04-15T13:29:06.054Z,35.90
2023-04-15T13:31:35.347Z,36.00
2023-04-15T13:34:04.714Z,36.00
2023-04-15T13:36:34.362Z,35.90
2023-04-15T13:39:03.651Z,35.90
2023-04-15T13:41:36.918Z,35.90
2023-04-15T13:44:05.987Z,35.70
2023-04-15T13:46:35.555Z,35.30
2023-04-15T13:49:04.980Z,34.00
2023-04-15T13:51:34.349Z,31.80
2023-04-15T13:54:03.836Z,30.10
2023-04-15T13:56:37.876Z,29.40
2023-04-15T13:59:07.280Z,29.00
2023-04-15T14:01:36.499Z,28.80
2023-04-15T14:04:06.181Z,28.50
2023-04-15T14:06:35.693Z,28.50
2023-04-15T14:09:05.558Z,28.50
2023-04-15T14:11:35.113Z,28.40
2023-04-15T14:14:04.553Z,28.50
2023-04-15T14:16:35.385Z,28.40
2023-04-15T14:19:04.981Z,28.40
2023-04-15T14:21:34.622Z,28.30
2023-04-15T14:24:04.064Z,28.30
2023-04-15T14:26:33.492Z,28.40
2023-04-15T14:29:03.044Z,28.30
2023-04-15T14:31:32.255Z,28.20
2023-04-15T14:34:01.378Z,28.20
2023-04-15T14:36:30.569Z,28.20
2023-04-15T14:38:59.553Z,28.20
2023-04-15T14:41:29.261Z,28.30
2023-04-15T14:43:58.472Z,28.20
2023-04-15T14:46:27.703Z,28.20
2023-04-15T14:48:56.944Z,28.10
2023-04-15T14:51:26.169Z,28.00
2023-04-15T14:53:55.476Z,28.00
2023-04-15T14:56:24.458Z,28.00
2023-04-15T14:58:53.552Z,27.80
2023-04-15T15:01:23.052Z,27.90
2023-04-15T15:03:52.405Z,27.80
2023-04-15T15:06:21.354Z,27.70
2023-04-15T15:08:50.671Z,27.80
2023-04-15T15:11:20.091Z,27.80
2023-04-15T15:13:49.571Z,27.70
2023-04-15T15:16:18.724Z,27.70
2023-04-15T15:18:47.840Z,27.60
2023-04-15T15:21:17.162Z,27.60
2023-04-15T15:23:46.461Z,27.50
2023-04-15T15:26:15.668Z,27.50
2023-04-15T15:28:45.072Z,27.40
2023-04-15T15:31:14.527Z,27.40
2023-04-15T15:33:43.661Z,27.30
2023-04-15T15:36:13.071Z,27.30
2023-04-15T15:38:42.372Z,27.30
2023-04-15T15:41:11.597Z,27.20
2023-04-15T15:43:41.074Z,27.20
2023-04-15T15:46:10.347Z,27.30
2023-04-15T15:48:39.554Z,27.20
2023-04-15T15:51:27.714Z,27.20
2023-04-15T15:53:57.012Z,27.30
2023-04-15T15:56:26.110Z,27.30
2023-04-15T15:58:54.993Z,27.20
2023-04-15T16:01:23.976Z,27.10
2023-04-15T16:03:53.434Z,27.00
2023-04-15T16:06:22.899Z,27.00
2023-04-15T16:08:51.784Z,27.00
2023-04-15T16:11:20.782Z,26.90
2023-04-15T16:13:49.774Z,26.90
2023-04-15T16:16:18.794Z,26.90
2023-04-15T16:18:48.278Z,26.90
2023-04-15T16:21:17.476Z,26.90
2023-04-15T16:23:46.697Z,26.90
2023-04-15T16:26:15.759Z,26.90
2023-04-15T16:28:44.970Z,26.90
2023-04-15T16:31:13.848Z,26.70
2023-04-15T16:33:43.055Z,26.70
2023-04-15T16:36:12.356Z,26.60
2023-04-15T16:38:41.245Z,26.70
2023-04-15T16:41:10.128Z,26.60
2023-04-15T16:43:39.134Z,26.60
2023-04-15T16:46:08.376Z,26.60
2023-04-15T16:48:37.316Z,26.70
2023-04-15T16:51:06.974Z,26.80
2023-04-15T16:53:36.022Z,26.90
2023-04-15T16:56:05.016Z,26.90
2023-04-15T16:58:34.240Z,26.90
2023-04-15T17:01:03.353Z,26.90
2023-04-15T17:03:32.560Z,26.90
2023-04-15T17:06:02.114Z,26.90
2023-04-15T17:08:31.318Z,26.90
2023-04-15T17:11:00.417Z,27.00
2023-04-15T17:13:29.397Z,26.90
2023-04-15T17:15:58.330Z,26.80
2023-04-15T17:18:27.595Z,26.80
2023-04-15T17:20:56.688Z,26.70
2023-04-15T17:23:25.890Z,26.70
2023-04-15T17:25:54.769Z,26.70
2023-04-15T17:28:23.878Z,26.60
2023-04-15T17:30:52.804Z,26.60
2023-04-15T17:33:55.370Z,26.60
2023-04-15T17:35:52.204Z,26.50
2023-04-15T17:38:21.075Z,26.60
2023-04-15T17:40:50.065Z,26.60
2023-04-15T17:43:19.071Z,26.70
2023-04-15T17:45:48.160Z,26.80
2023-04-15T17:48:17.154Z,26.60
2023-04-15T17:50:46.734Z,26.60
2023-04-15T17:53:15.649Z,26.70
2023-04-15T17:55:44.743Z,26.70
2023-04-15T17:58:13.754Z,26.80
2023-04-15T18:00:42.948Z,26.80
2023-04-15T18:03:12.095Z,26.70
2023-04-15T18:05:42.648Z,26.60
2023-04-15T18:08:11.563Z,26.60
2023-04-15T18:10:40.438Z,26.60
2023-04-15T18:13:09.750Z,26.70
2023-04-15T18:15:39.050Z,26.80
2023-04-15T18:18:08.036Z,26.80
2023-04-15T18:20:37.029Z,26.90
2023-04-15T18:23:06.132Z,26.90
2023-04-15T18:25:35.329Z,26.80
2023-04-15T18:28:04.624Z,26.80
2023-04-15T18:30:33.513Z,26.70
2023-04-15T18:33:02.655Z,26.60
2023-04-15T18:38:18.417Z,26.70
2023-04-15T18:40:47.413Z,26.60
2023-04-15T18:43:16.816Z,26.50
2023-04-15T18:45:45.949Z,26.50
2023-04-15T18:48:14.903Z,26.40
2023-04-15T18:50:44.005Z,26.30
2023-04-15T18:53:13.002Z,26.30
2023-04-15T18:55:42.091Z,26.30
2023-04-15T18:58:11.416Z,26.20
2023-04-15T19:00:40.713Z,26.20
2023-04-15T19:03:10.375Z,26.10
2023-04-15T19:05:39.285Z,26.10
2023-04-15T19:08:08.292Z,26.10
2023-04-15T19:10:37.290Z,26.00
2023-04-15T19:13:06.385Z,26.00
2023-04-15T19:15:35.577Z,26.00
2023-04-15T19:18:04.606Z,26.00
2023-04-15T19:20:37.177Z,25.90
2023-04-15T19:23:04.393Z,25.90
2023-04-15T19:25:33.507Z,25.90
2023-04-15T19:28:02.374Z,25.90
2023-04-15T19:30:31.393Z,25.90
2023-04-15T19:33:00.585Z,25.80
2023-04-15T19:35:29.463Z,25.80
2023-04-15T19:37:58.675Z,25.80
2023-04-15T19:40:27.668Z,25.80
2023-04-15T19:43:00.036Z,25.80
2023-04-15T19:45:28.923Z,25.80
2023-04-15T19:47:58.043Z,25.70
2023-04-15T19:50:27.215Z,25.70
2023-04-15T19:52:56.205Z,25.70
2023-04-15T19:55:25.091Z,25.60
2023-04-15T19:57:54.306Z,25.60
2023-04-15T20:00:23.188Z,25.50
2023-04-15T20:02:52.263Z,25.60
2023-04-15T20:05:21.560Z,25.50
2023-04-15T20:07:50.598Z,25.60
2023-04-15T20:10:19.547Z,25.50
2023-04-15T20:12:52.693Z,25.50
2023-04-15T20:15:19.206Z,25.50
2023-04-15T20:17:48.216Z,25.50
2023-04-15T20:20:17.277Z,25.60
2023-04-15T20:22:46.392Z,25.60
2023-04-15T20:25:15.477Z,25.50
2023-04-15T20:27:44.370Z,25.50
2023-04-15T20:30:13.460Z,25.50
2023-04-15T20:32:42.687Z,25.60
2023-04-15T20:35:11.958Z,25.60
2023-04-15T20:37:41.365Z,25.60
2023-04-15T20:40:10.351Z,25.60
2023-04-15T20:42:39.237Z,25.50
2023-04-15T20:45:08.240Z,25.50
2023-04-15T20:47:37.266Z,25.60
2023-04-15T20:50:06.222Z,25.60
2023-04-15T20:52:35.427Z,25.50
2023-04-15T20:55:04.626Z,25.50
2023-04-15T20:57:33.512Z,25.50
2023-04-15T21:00:02.606Z,25.60
2023-04-15T21:02:31.837Z,25.60
2023-04-15T21:05:01.122Z,25.60
2023-04-15T21:07:30.118Z,25.60
2023-04-15T21:09:59.718Z,25.60
2023-04-15T21:12:29.009Z,25.50
2023-04-15T21:14:58.204Z,25.50
2023-04-15T21:17:27.527Z,25.60
2023-04-15T21:19:56.914Z,25.70
2023-04-15T21:22:26.105Z,25.70
2023-04-15T21:24:55.338Z,25.70
2023-04-15T21:27:27.790Z,25.80
2023-04-15T21:29:57.184Z,25.80
2023-04-15T21:32:26.436Z,25.90
2023-04-15T21:34:58.574Z,25.90
2023-04-15T21:37:27.746Z,26.00
2023-04-15T21:39:56.958Z,26.00
2023-04-15T21:42:26.706Z,26.00
2023-04-15T21:45:00.802Z,26.00
2023-04-15T21:47:29.995Z,25.90
2023-04-15T21:49:59.376Z,25.80
2023-04-15T21:52:28.387Z,25.80
2023-04-15T21:54:57.354Z,25.70
2023-04-15T21:57:26.652Z,25.60
2023-04-15T21:59:55.856Z,25.50
2023-04-15T22:02:25.075Z,25.50
2023-04-15T22:04:54.352Z,25.50
2023-04-15T22:07:23.702Z,25.40
2023-04-15T22:09:52.954Z,25.40
2023-04-15T22:12:22.056Z,25.30
2023-04-15T22:14:51.662Z,25.40
2023-04-15T22:17:20.860Z,25.40
2023-04-15T22:19:49.747Z,25.40
2023-04-15T22:22:19.055Z,25.50
2023-04-15T22:24:49.178Z,25.60
2023-04-15T22:27:18.364Z,25.50
2023-04-15T22:29:47.562Z,25.40
2023-04-15T22:32:16.763Z,25.30
2023-04-15T22:34:46.068Z,25.40
2023-04-15T22:37:15.358Z,25.50
2023-04-15T22:39:44.671Z,25.50
2023-04-15T22:42:14.172Z,25.50
2023-04-15T22:44:43.674Z,25.50
2023-04-15T22:47:13.071Z,25.60
2023-04-15T22:49:42.483Z,25.60
2023-04-15T22:52:17.182Z,25.40
2023-04-15T22:54:42.197Z,25.30
2023-04-15T22:57:11.407Z,25.40
2023-04-15T22:59:40.706Z,25.50
2023-04-15T23:02:09.908Z,25.50
2023-04-15T23:04:39.159Z,25.60
2023-04-15T23:07:08.619Z,25.60
2023-04-15T23:09:37.696Z,25.50
2023-04-15T23:12:07.112Z,25.60
2023-04-15T23:14:36.516Z,25.60
2023-04-15T23:17:05.698Z,25.50
2023-04-15T23:19:35.421Z,25.50
2023-04-15T23:22:04.823Z,25.50
2023-04-15T23:24:33.809Z,25.50
2023-04-15T23:27:02.913Z,25.70
2023-04-15T23:29:32.209Z,26.30
2023-04-15T23:32:01.490Z,26.90
2023-04-15T23:34:30.906Z,27.50
2023-04-15T23:37:00.341Z,28.00
2023-04-15T23:39:29.720Z,28.40
2023-04-15T23:41:59.015Z,28.80
2023-04-15T23:44:28.198Z,29.10
2023-04-15T23:46:57.554Z,29.40
2023-04-15T23:49:27.020Z,29.60
2023-04-15T23:51:56.010Z,29.80
2023-04-15T23:54:25.219Z,30.00
2023-04-15T23:56:54.517Z,30.20
2023-04-15T23:59:23.720Z,30.30
